Time;durP1;ratioP1;P1;durP2;ratioP2;P2;SDS_P1;SDS_P2;PMS_P1;PMS_P2;Temp;Humidity;BMP_temperature;BMP_pressure;BME280_temperature;BME280_humidity;BME280_pressure;Samples;Min_cycle;Max_cycle;Signal;HPM_P1;HPM_P2
2021/06/05 00:00:24;;;;;;;0.40;0.40;;;;;;;17.85;65.26;97347.00;29396;229;63009;-63
2021/06/05 00:00:56;;;;;;;0.40;0.40;;;;;;;17.83;65.50;97346.50;29396;197;63004;-61
2021/06/05 00:01:35;;;;;;;0.40;0.40;;;;;;;17.75;66.44;97347.34;29396;239;63009;-61
2021/06/05 00:02:06;;;;;;;0.40;0.40;;;;;;;17.70;66.61;97342.03;29396;202;63004;-61
2021/06/05 00:02:38;;;;;;;0.40;0.40;;;;;;;17.66;66.74;97341.91;29396;210;63009;-62
2021/06/05 00:03:12;;;;;;;0.47;0.47;;;;;;;17.63;67.32;97342.53;29395;255;64008;-62
2021/06/05 00:03:43;;;;;;;0.40;0.40;;;;;;;17.60;67.51;97347.87;29396;235;63020;-62
2021/06/05 00:04:15;;;;;;;0.40;0.40;;;;;;;17.58;67.42;97344.62;29396;314;63005;-63
2021/06/05 00:04:46;;;;;;;0.50;0.50;;;;;;;17.55;67.22;97345.28;29396;212;63009;-62
2021/06/05 00:05:23;;;;;;;0.50;0.50;;;;;;;17.53;67.95;97347.56;29396;211;64009;-62
2021/06/05 00:05:58;;;;;;;0.40;0.40;;;;;;;17.52;67.35;97345.94;29397;218;63009;-61
2021/06/05 00:06:30;;;;;;;0.40;0.40;;;;;;;17.51;67.31;97347.06;29396;204;64009;-62
2021/06/05 00:07:02;;;;;;;0.45;0.45;;;;;;;17.50;67.27;97339.97;29396;210;63009;-62
2021/06/05 00:07:34;;;;;;;0.40;0.40;;;;;;;17.49;67.11;97347.41;29397;202;63005;-62
2021/06/05 00:08:07;;;;;;;0.40;0.40;;;;;;;17.48;67.65;97344.97;29397;198;63018;-62
2021/06/05 00:08:38;;;;;;;0.50;0.50;;;;;;;17.46;67.94;97344.50;29397;241;63004;-61
2021/06/05 00:09:10;;;;;;;0.40;0.40;;;;;;;17.43;67.90;97346.75;29397;214;63009;-61
2021/06/05 00:09:42;;;;;;;0.43;0.43;;;;;;;17.42;68.20;97338.84;29397;220;63004;-63
2021/06/05 00:10:17;;;;;;;0.50;0.50;;;;;;;17.40;68.27;97339.19;29397;261;63009;-62
2021/06/05 00:10:55;;;;;;;0.40;0.40;;;;;;;17.38;68.31;97335.94;29397;235;63004;-62
2021/06/05 00:11:29;;;;;;;0.50;0.50;;;;;;;17.41;68.10;97335.31;29396;209;64014;-67
2021/06/05 00:12:00;;;;;;;0.50;0.50;;;;;;;17.43;67.62;97332.22;29397;323;63005;-61
2021/06/05 00:12:32;;;;;;;0.40;0.40;;;;;;;17.43;67.78;97333.03;29397;204;63009;-61
2021/06/05 00:13:07;;;;;;;0.40;0.40;;;;;;;17.40;67.62;97336.44;29396;237;64005;-62
2021/06/05 00:13:45;;;;;;;0.40;0.40;;;;;;;17.39;67.89;97332.06;29397;265;63009;-63
2021/06/05 00:14:16;;;;;;;0.40;0.40;;;;;;;17.38;68.31;97335.94;29397;235;63005;-62
2021/06/05 00:14:48;;;;;;;0.40;0.40;;;;;;;17.37;68.27;97331.59;29397;216;63005;-61
2021/06/05 00:15:29;;;;;;;0.40;0.40;;;;;;;17.36;69.55;97329.97;29397;222;63004;-63
2021/06/05 00:16:02;;;;;;;0.50;0.50;;;;;;;17.32;69.54;97331.78;29419;203;63009;-62
2021/06/05 00:16:38;;;;;;;0.40;0.40;;;;;;;17.31;69.56;97327.44;29396;198;64009;-63
2021/06/05 00:17:10;;;;;;;0.50;0.50;;;;;;;17.30;68.93;97336.78;29397;202;63008;-61
2021/06/05 00:17:41;;;;;;;0.40;0.40;;;;;;;17.30;69.39;97334.06;29397;202;63004;-62
2021/06/05 00:18:14;;;;;;;0.40;0.40;;;;;;;17.28;69.26;97330.81;29397;197;63008;-61
2021/06/05 00:18:47;;;;;;;0.40;0.40;;;;;;;17.26;69.43;97322.12;29395;284;64023;-62
2021/06/05 00:19:20;;;;;;;0.40;0.40;;;;;;;17.27;69.61;97322.94;29397;198;63009;-62
2021/06/05 00:19:52;;;;;;;0.40;0.40;;;;;;;17.28;69.71;97325.34;29396;220;63005;-62
2021/06/05 00:20:28;;;;;;;0.40;0.40;;;;;;;17.29;69.17;97326.16;29396;335;63019;-61
2021/06/05 00:20:59;;;;;;;0.40;0.40;;;;;;;17.28;69.10;97325.34;29396;214;63005;-61
2021/06/05 00:21:31;;;;;;;0.40;0.40;;;;;;;17.26;69.51;97322.12;29396;255;63009;-62
2021/06/05 00:22:03;;;;;;;0.40;0.40;;;;;;;17.26;69.65;97321.31;29396;202;63005;-63
2021/06/05 00:22:34;;;;;;;0.40;0.40;;;;;;;17.25;69.95;97325.19;29396;331;63009;-65
2021/06/05 00:23:08;;;;;;;0.40;0.40;;;;;;;17.24;69.70;97320.84;29396;227;63004;-62
2021/06/05 00:23:39;;;;;;;0.40;0.40;;;;;;;17.24;70.08;97318.09;29395;368;64013;-64
2021/06/05 00:24:12;;;;;;;0.45;0.45;;;;;;;17.31;68.70;97318.41;29396;259;63004;-62
2021/06/05 00:24:43;;;;;;;0.40;0.40;;;;;;;17.37;67.65;97312.41;29396;213;63008;-63
2021/06/05 00:25:16;;;;;;;0.40;0.40;;;;;;;17.41;67.53;97307.88;29396;273;63004;-61
2021/06/05 00:25:49;;;;;;;0.40;0.40;;;;;;;17.40;67.85;97310.94;29396;275;63009;-63
2021/06/05 00:26:21;;;;;;;0.40;0.40;;;;;;;17.42;67.93;97314.97;29396;209;63005;-64
2021/06/05 00:26:53;;;;;;;0.40;0.40;;;;;;;17.41;68.04;97312.56;29396;212;63009;-63
2021/06/05 00:27:24;;;;;;;0.40;0.40;;;;;;;17.39;68.00;97310.13;29396;211;63005;-63
2021/06/05 00:27:56;;;;;;;0.50;0.50;;;;;;;17.37;68.47;97312.41;29395;240;64013;-65
2021/06/05 00:28:28;;;;;;;0.50;0.50;;;;;;;17.37;68.25;97312.41;29396;226;63005;-61
2021/06/05 00:28:59;;;;;;;0.40;0.40;;;;;;;17.35;68.29;97314.66;29396;265;63009;-61
2021/06/05 00:29:31;;;;;;;0.50;0.50;;;;;;;17.34;68.17;97312.25;29396;207;63005;-62
2021/06/05 00:30:09;;;;;;;0.50;0.50;;;;;;;17.33;68.69;97311.44;29397;209;63009;-61
2021/06/05 00:30:41;;;;;;;0.40;0.40;;;;;;;17.31;68.30;97313.72;29396;202;63004;-62
2021/06/05 00:31:13;;;;;;;0.40;0.40;;;;;;;17.30;68.48;97311.31;29396;239;63009;-62
2021/06/05 00:31:44;;;;;;;0.40;0.40;;;;;;;17.28;68.72;97308.88;29396;367;63004;-61
2021/06/05 00:32:15;;;;;;;0.40;0.40;;;;;;;17.26;68.95;97311.16;29396;219;63008;-62
2021/06/05 00:32:47;;;;;;;0.40;0.40;;;;;;;17.24;69.10;97318.91;29395;218;64008;-62
2021/06/05 00:33:22;;;;;;;0.40;0.40;;;;;;;17.21;69.64;97314.06;29396;228;63009;-62
2021/06/05 00:33:54;;;;;;;0.40;0.40;;;;;;;17.19;69.61;97315.50;29396;220;63005;-62
2021/06/05 00:34:26;;;;;;;0.40;0.40;;;;;;;17.16;70.06;97311.47;29396;217;63009;-62
2021/06/05 00:34:57;;;;;;;0.40;0.40;;;;;;;17.16;69.60;97316.97;29396;272;63005;-62
2021/06/05 00:35:30;;;;;;;0.40;0.40;;;;;;;17.15;69.87;97320.03;29396;221;63009;-60
2021/06/05 00:36:03;;;;;;;0.40;0.40;;;;;;;17.12;70.04;97318.75;29396;240;63000;-61
2021/06/05 00:36:34;;;;;;;0.40;0.40;;;;;;;17.11;70.09;97321.81;29395;360;64013;-63
2021/06/05 00:37:06;;;;;;;0.40;0.40;;;;;;;17.11;69.77;97308.91;29395;305;64009;-62
2021/06/05 00:37:37;;;;;;;0.40;0.40;;;;;;;17.11;69.67;97313.59;29395;259;64013;-64
2021/06/05 00:38:09;;;;;;;0.40;0.40;;;;;;;17.11;69.58;97319.88;29396;229;63004;-67
2021/06/05 00:38:41;;;;;;;0.40;0.40;;;;;;;17.11;69.80;97319.06;29396;218;63009;-63
2021/06/05 00:39:12;;;;;;;0.50;0.50;;;;;;;17.08;70.10;97321.31;29396;224;63004;-66
2021/06/05 00:39:43;;;;;;;0.40;0.40;;;;;;;17.10;69.50;97323.75;29396;212;63009;-60
2021/06/05 00:40:18;;;;;;;0.40;0.40;;;;;;;17.07;69.66;97316.97;29396;208;63004;-61
2021/06/05 00:40:53;;;;;;;0.40;0.40;;;;;;;17.06;69.96;97317.28;29395;196;64014;-63
2021/06/05 00:41:27;;;;;;;0.40;0.40;;;;;;;17.01;70.30;97321.00;29396;223;63005;-60
2021/06/05 00:41:59;;;;;;;0.40;0.40;;;;;;;16.99;70.67;97322.44;29395;264;64014;-62
2021/06/05 00:42:30;;;;;;;0.50;0.50;;;;;;;16.96;70.53;97323.13;29396;200;63005;-62
2021/06/05 00:43:01;;;;;;;0.40;0.40;;;;;;;16.92;71.19;97316.69;29396;285;63017;-63
2021/06/05 00:43:40;;;;;;;0.50;0.50;;;;;;;16.89;71.37;97322.81;29396;210;63013;-62
2021/06/05 00:44:13;;;;;;;0.40;0.40;;;;;;;16.85;72.28;97317.16;29396;211;63009;-62
2021/06/05 00:44:45;;;;;;;0.40;0.40;;;;;;;16.85;71.55;97311.69;29396;210;63011;-60
2021/06/05 00:45:18;;;;;;;0.40;0.40;;;;;;;16.84;71.66;97314.75;29396;203;63009;-67
2021/06/05 00:45:50;;;;;;;0.40;0.40;;;;;;;16.82;71.72;97322.47;29396;209;63004;-62
2021/06/05 00:46:23;;;;;;;0.40;0.40;;;;;;;16.78;72.53;97322.31;29396;236;63009;-61
2021/06/05 00:46:54;;;;;;;0.40;0.40;;;;;;;16.74;72.51;97324.09;29395;232;64009;-61
2021/06/05 00:47:26;;;;;;;0.50;0.50;;;;;;;16.71;73.25;97322.78;29396;276;63004;-59
2021/06/05 00:47:57;;;;;;;0.40;0.40;;;;;;;16.74;72.22;97324.88;29396;196;63004;-61
2021/06/05 00:48:28;;;;;;;0.50;0.50;;;;;;;16.75;72.16;97334.72;29396;220;63009;-61
2021/06/05 00:49:04;;;;;;;0.47;0.47;;;;;;;16.82;71.64;97333.44;29396;222;63005;-61
2021/06/05 00:49:35;;;;;;;0.40;0.40;;;;;;;16.81;71.26;97331.81;29396;204;63009;-61
2021/06/05 00:50:09;;;;;;;0.50;0.50;;;;;;;16.83;71.48;97329.56;29396;233;63005;-61
2021/06/05 00:50:42;;;;;;;0.40;0.40;;;;;;;16.83;71.54;97332.31;29396;202;63011;-64
2021/06/05 00:51:16;;;;;;;0.50;0.50;;;;;;;16.79;71.69;97328.59;29396;239;63005;-57
2021/06/05 00:51:51;;;;;;;0.47;0.47;;;;;;;16.78;71.21;97325.06;29396;223;63009;-61
2021/06/05 00:52:26;;;;;;;0.47;0.47;;;;;;;16.75;71.47;97325.69;29395;221;64009;-59
2021/06/05 00:52:58;;;;;;;0.50;0.50;;;;;;;16.82;71.49;97317.00;29396;241;63009;-60
2021/06/05 00:53:30;;;;;;;0.43;0.43;;;;;;;16.84;71.24;97320.22;29396;258;63014;-70
2021/06/05 00:54:03;;;;;;;0.43;0.43;;;;;;;16.83;71.15;97318.59;29396;277;63009;-63
2021/06/05 00:54:34;;;;;;;0.40;0.40;;;;;;;16.74;71.58;97315.84;29396;219;63004;-60
2021/06/05 00:55:09;;;;;;;0.40;0.40;;;;;;;16.70;71.62;97315.69;29396;211;63024;-59
2021/06/05 00:55:43;;;;;;;0.40;0.40;;;;;;;16.66;71.60;97313.91;29396;202;63004;-61
2021/06/05 00:56:16;;;;;;;0.50;0.50;;;;;;;16.65;71.99;97318.59;29396;224;63009;-62
2021/06/05 00:56:52;;;;;;;0.40;0.40;;;;;;;16.62;71.88;97319.22;29395;220;64009;-62
2021/06/05 00:57:24;;;;;;;0.50;0.50;;;;;;;16.58;71.97;97315.50;29396;214;63009;-60
2021/06/05 00:57:56;;;;;;;0.40;0.40;;;;;;;16.55;72.95;97320.81;29396;238;63005;-61
2021/06/05 00:58:28;;;;;;;0.50;0.50;;;;;;;16.49;72.74;97309.22;29396;206;63009;-61
2021/06/05 00:58:59;;;;;;;0.50;0.50;;;;;;;16.55;72.33;97313.41;29396;229;63005;-62
2021/06/05 00:59:31;;;;;;;0.50;0.50;;;;;;;16.55;72.00;97316.16;29396;231;63009;-62
2021/06/05 01:00:24;;;;;;;0.50;0.50;;;;;;;16.52;72.45;97305.84;29395;198;64009;-67
2021/06/05 01:01:18;;;;;;;0.50;0.50;;;;;;;16.43;73.17;97302.28;29396;345;63009;-62
2021/06/05 01:01:50;;;;;;;0.50;0.50;;;;;;;16.43;73.34;97305.00;29396;295;63004;-60
2021/06/05 01:02:21;;;;;;;0.40;0.40;;;;;;;16.45;73.29;97308.25;29396;202;63009;-60
2021/06/05 01:02:55;;;;;;;0.50;0.50;;;;;;;16.49;72.86;97305.66;29396;202;63005;-60
2021/06/05 01:03:28;;;;;;;0.50;0.50;;;;;;;16.50;72.42;97310.81;29395;219;64014;-61
2021/06/05 01:04:00;;;;;;;0.40;0.40;;;;;;;16.48;72.43;97315.81;29396;194;63005;-62
2021/06/05 01:04:32;;;;;;;0.50;0.50;;;;;;;16.46;72.73;97309.84;29396;204;63009;-61
2021/06/05 01:05:05;;;;;;;0.40;0.40;;;;;;;16.44;72.95;97312.09;29396;266;63008;-61
2021/06/05 01:05:39;;;;;;;0.40;0.40;;;;;;;16.40;72.95;97311.13;29396;219;63009;-60
2021/06/05 01:06:23;;;;;;;0.40;0.40;;;;;;;16.40;73.19;97308.38;29396;233;63005;-63
2021/06/05 01:07:15;;;;;;;0.40;0.40;;;;;;;16.39;73.31;97304.84;29397;328;63020;-58
2021/06/05 01:07:48;;;;;;;0.50;0.50;;;;;;;16.40;72.86;97305.66;29397;222;63004;-60
2021/06/05 01:08:55;;;;;;;0.50;0.50;;;;;;;16.49;72.18;97303.75;29395;211;64013;-61
2021/06/05 01:09:35;;;;;;;0.50;0.50;;;;;;;16.47;72.41;97300.50;29395;222;64009;-61
2021/06/05 01:10:15;;;;;;;0.40;0.40;;;;;;;16.44;72.52;97303.87;29417;356;64013;-60
2021/06/05 01:10:52;;;;;;;0.50;0.50;;;;;;;16.39;73.05;97304.03;29397;207;63010;-63
2021/06/05 01:12:04;;;;;;;0.50;0.50;;;;;;;16.35;72.85;97303.87;29395;203;63009;-60
2021/06/05 01:13:26;;;;;;;0.50;0.50;;;;;;;16.37;72.47;97298.06;29417;202;63009;-60
2021/06/05 01:14:19;;;;;;;0.50;0.50;;;;;;;16.34;72.83;97305.00;29415;238;64009;-62
2021/06/05 01:15:30;;;;;;;0.50;0.50;;;;;;;16.36;72.50;97299.19;29395;263;63009;-61
2021/06/05 01:16:06;;;;;;;0.50;0.50;;;;;;;16.40;72.18;97300.97;29395;219;63004;-61
2021/06/05 01:16:40;;;;;;;0.50;0.50;;;;;;;16.38;72.41;97305.16;29395;315;63009;-61
2021/06/05 01:17:16;;;;;;;0.50;0.50;;;;;;;16.37;72.15;97306.28;29395;217;63004;-62
2021/06/05 01:18:19;;;;;;;0.50;0.50;;;;;;;16.30;72.60;97303.22;29393;207;64013;-62
2021/06/05 01:19:01;;;;;;;0.50;0.50;;;;;;;16.33;72.59;97305.31;29395;276;63005;-62
2021/06/05 01:20:08;;;;;;;0.50;0.50;;;;;;;16.28;72.63;97303.56;29395;206;63009;-61
2021/06/05 01:21:08;;;;;;;0.50;0.50;;;;;;;16.25;72.74;97306.12;29395;210;63005;-63
2021/06/05 01:22:28;;;;;;;0.50;0.50;;;;;;;16.23;73.30;97300.97;29393;257;64013;-61
2021/06/05 01:23:52;;;;;;;0.50;0.50;;;;;;;16.28;72.84;97308.22;29394;204;63004;-62
2021/06/05 01:25:06;;;;;;;0.50;0.50;;;;;;;16.29;72.86;97309.81;29393;208;64013;-60
2021/06/05 01:26:14;;;;;;;0.50;0.50;;;;;;;16.24;73.02;97308.06;29395;224;63004;-61
2021/06/05 01:26:53;;;;;;;0.50;0.50;;;;;;;16.18;72.72;97312.06;29395;214;63005;-68
2021/06/05 01:27:29;;;;;;;0.50;0.50;;;;;;;16.20;73.33;97301.59;29395;197;63009;-59
2021/06/05 01:28:12;;;;;;;0.50;0.50;;;;;;;16.22;73.28;97301.28;29395;214;63005;-63
2021/06/05 01:28:53;;;;;;;0.50;0.50;;;;;;;16.21;73.21;97303.22;29395;224;63009;-61
2021/06/05 01:29:29;;;;;;;0.50;0.50;;;;;;;16.20;73.43;97303.53;29393;202;64009;-62
2021/06/05 01:30:14;;;;;;;0.50;0.50;;;;;;;16.16;73.58;97297.09;29395;213;63009;-67
2021/06/05 01:30:51;;;;;;;0.50;0.50;;;;;;;16.14;73.38;97302.06;29395;335;63004;-61
2021/06/05 01:31:26;;;;;;;0.50;0.50;;;;;;;16.13;73.40;97300.44;29395;281;63009;-61
2021/06/05 01:32:04;;;;;;;0.50;0.50;;;;;;;16.16;73.33;97299.81;29395;283;63004;-62
2021/06/05 01:32:37;;;;;;;0.47;0.47;;;;;;;16.15;73.37;97300.94;29395;208;63008;-61
2021/06/05 01:33:09;;;;;;;0.50;0.50;;;;;;;16.14;73.65;97291.12;29395;213;63005;-60
2021/06/05 01:33:43;;;;;;;0.50;0.50;;;;;;;16.14;73.77;97304.81;29395;209;63009;-62
2021/06/05 01:34:15;;;;;;;0.50;0.50;;;;;;;16.11;73.93;97291.75;29395;224;63005;-63
2021/06/05 01:34:49;;;;;;;0.40;0.40;;;;;;;16.08;73.66;97296.75;29393;352;64013;-64
2021/06/05 01:35:23;;;;;;;0.40;0.40;;;;;;;16.13;73.90;97295.78;29395;235;63005;-63
2021/06/05 01:35:55;;;;;;;0.47;0.47;;;;;;;16.10;73.75;97285.47;29395;235;63009;-62
2021/06/05 01:36:27;;;;;;;0.50;0.50;;;;;;;16.08;73.82;97283.06;29395;369;63005;-60
2021/06/05 01:36:59;;;;;;;0.50;0.50;;;;;;;16.14;73.30;97291.12;29395;217;63004;-62
2021/06/05 01:37:36;;;;;;;0.50;0.50;;;;;;;16.16;73.00;97284.19;29395;291;63012;-59
2021/06/05 01:38:11;;;;;;;0.40;0.40;;;;;;;16.25;72.76;97297.91;29393;292;64013;-63
2021/06/05 01:38:50;;;;;;;0.50;0.50;;;;;;;16.25;72.60;97290.50;29394;208;64009;-63
2021/06/05 01:39:29;;;;;;;0.50;0.50;;;;;;;16.23;72.94;97295.50;29395;292;63004;-62
2021/06/05 01:40:01;;;;;;;0.50;0.50;;;;;;;16.21;73.25;97285.97;29395;291;63004;-60
2021/06/05 01:40:32;;;;;;;0.50;0.50;;;;;;;16.22;73.02;97284.84;29395;208;63014;-60
2021/06/05 01:41:07;;;;;;;0.50;0.50;;;;;;;16.24;73.15;97282.59;29395;220;63007;-63
2021/06/05 01:41:40;;;;;;;0.50;0.50;;;;;;;16.24;72.86;97282.59;29395;245;63009;-62
2021/06/05 01:42:25;;;;;;;0.50;0.50;;;;;;;16.24;72.74;97285.34;29395;245;63005;-62
2021/06/05 01:43:00;;;;;;;0.50;0.50;;;;;;;16.21;72.79;97285.97;29395;203;63009;-61
2021/06/05 01:43:32;;;;;;;0.43;0.43;;;;;;;16.18;72.34;97283.88;29393;209;64009;-62
2021/06/05 01:44:09;;;;;;;0.40;0.40;;;;;;;16.15;72.72;97287.25;29395;250;63009;-60
2021/06/05 01:44:41;;;;;;;0.40;0.40;;;;;;;16.12;73.10;97282.41;29395;205;63004;-61
2021/06/05 01:45:20;;;;;;;0.40;0.40;;;;;;;16.13;72.82;97279.34;29394;307;64013;-62
2021/06/05 01:45:52;;;;;;;0.50;0.50;;;;;;;16.13;73.11;97284.03;29395;211;63009;-61
2021/06/05 01:46:29;;;;;;;0.40;0.40;;;;;;;16.14;72.86;97280.16;29395;222;63009;-61
2021/06/05 01:47:01;;;;;;;0.50;0.50;;;;;;;16.16;72.98;97283.41;29395;282;63004;-61
2021/06/05 01:47:32;;;;;;;0.50;0.50;;;;;;;16.17;72.80;97288.56;29395;209;63008;-61
2021/06/05 01:48:05;;;;;;;0.50;0.50;;;;;;;16.17;72.45;97285.00;29395;234;63005;-62
2021/06/05 01:48:37;;;;;;;0.40;0.40;;;;;;;16.13;72.36;97286.75;29395;227;63009;-63
2021/06/05 01:49:09;;;;;;;0.50;0.50;;;;;;;16.11;72.50;97286.28;29394;201;64009;-62
2021/06/05 01:49:42;;;;;;;0.50;0.50;;;;;;;16.09;72.87;97279.19;29395;203;63009;-64
2021/06/05 01:50:16;;;;;;;0.50;0.50;;;;;;;16.11;73.03;97281.59;29395;230;63000;-61
2021/06/05 01:50:48;;;;;;;0.50;0.50;;;;;;;16.11;73.10;97278.06;29395;270;63015;-62
2021/06/05 01:51:20;;;;;;;0.45;0.45;;;;;;;16.12;73.26;97288.69;29395;253;63005;-61
2021/06/05 01:52:01;;;;;;;0.40;0.40;;;;;;;16.24;72.08;97279.87;29395;256;63009;-66
2021/06/05 01:52:35;;;;;;;0.40;0.40;;;;;;;16.29;72.15;97276.94;29417;243;63004;-65
2021/06/05 01:53:11;;;;;;;0.40;0.40;;;;;;;16.31;71.97;97288.41;29395;204;63009;-63
2021/06/05 01:53:52;;;;;;;0.40;0.40;;;;;;;16.29;72.00;97282.44;29395;307;63009;-62
2021/06/05 01:54:39;;;;;;;0.40;0.40;;;;;;;16.25;72.79;97287.75;29416;203;64002;-64
2021/06/05 01:55:31;;;;;;;0.50;0.50;;;;;;;16.25;72.26;97287.75;29395;388;63004;-60
2021/06/05 01:56:33;;;;;;;0.50;0.50;;;;;;;16.31;71.50;97280.19;29395;203;63019;-65
2021/06/05 01:57:08;;;;;;;0.50;0.50;;;;;;;16.31;71.73;97280.19;29417;246;63008;-62
2021/06/05 01:57:44;;;;;;;0.40;0.40;;;;;;;16.33;71.77;97277.94;29395;208;63009;-62
2021/06/05 01:58:17;;;;;;;0.50;0.50;;;;;;;16.31;71.81;97275.50;29395;206;63005;-60
2021/06/05 01:58:50;;;;;;;0.40;0.40;;;;;;;16.29;71.80;97282.44;29395;205;63009;-63
2021/06/05 01:59:21;;;;;;;0.40;0.40;;;;;;;16.26;71.78;97272.16;29394;199;64009;-64
2021/06/05 01:59:56;;;;;;;0.40;0.40;;;;;;;16.24;72.03;97274.41;29395;210;63009;-60
2021/06/05 02:00:37;;;;;;;0.40;0.40;;;;;;;16.25;72.05;97276.00;29395;218;63010;-66
2021/06/05 02:01:10;;;;;;;0.40;0.40;;;;;;;16.25;72.02;97270.53;29395;210;63009;-62
2021/06/05 02:01:43;;;;;;;0.50;0.50;;;;;;;16.28;71.69;97276.19;29395;232;63004;-62
2021/06/05 02:02:14;;;;;;;0.40;0.40;;;;;;;16.29;71.69;97276.94;29395;264;63008;-62
2021/06/05 02:02:45;;;;;;;0.47;0.47;;;;;;;16.26;71.87;97281.16;29395;214;63004;-63
2021/06/05 02:03:18;;;;;;;0.40;0.40;;;;;;;16.34;71.30;97274.06;29395;268;63009;-61
2021/06/05 02:03:50;;;;;;;0.40;0.40;;;;;;;16.33;71.39;97272.44;29395;232;63005;-61
2021/06/05 02:04:22;;;;;;;0.50;0.50;;;;;;;16.41;70.99;97282.63;29394;236;64014;-65
2021/06/05 02:04:54;;;;;;;0.50;0.50;;;;;;;16.46;70.13;97277.00;29395;228;63005;-60
2021/06/05 02:05:28;;;;;;;0.45;0.45;;;;;;;16.45;70.23;97275.38;29395;270;63009;-64
2021/06/05 02:05:59;;;;;;;0.40;0.40;;;;;;;16.45;70.75;97275.38;29395;327;63005;-63
2021/06/05 02:06:31;;;;;;;0.50;0.50;;;;;;;16.43;70.59;97274.88;29395;235;63009;-62
2021/06/05 02:07:05;;;;;;;0.40;0.40;;;;;;;16.41;71.08;97279.87;29395;197;63004;-65
2021/06/05 02:07:37;;;;;;;0.47;0.47;;;;;;;16.43;70.60;97272.16;29395;196;63009;-64
2021/06/05 02:08:14;;;;;;;0.40;0.40;;;;;;;16.50;69.88;97277.97;29395;229;63004;-62
2021/06/05 02:08:46;;;;;;;0.50;0.50;;;;;;;16.47;70.03;97273.13;29395;196;63009;-61
2021/06/05 02:09:21;;;;;;;0.50;0.50;;;;;;;16.45;70.61;97283.59;29395;287;63004;-61
2021/06/05 02:09:52;;;;;;;0.50;0.50;;;;;;;16.43;70.74;97277.63;29394;256;64013;-66
2021/06/05 02:10:29;;;;;;;0.40;0.40;;;;;;;16.52;70.29;97267.50;29395;201;63009;-65
2021/06/05 02:11:08;;;;;;;3.15;3.03;;;;;;;16.59;69.56;97276.03;29395;202;63009;-63
2021/06/05 02:11:52;;;;;;;0.50;0.50;;;;;;;16.59;70.14;97270.56;29395;242;63005;-61
2021/06/05 02:12:32;;;;;;;0.45;0.45;;;;;;;16.56;69.75;97270.38;29395;211;63015;-62
2021/06/05 02:13:05;;;;;;;0.50;0.50;;;;;;;16.51;70.48;97274.09;29395;298;63005;-63
2021/06/05 02:13:45;;;;;;;0.43;0.43;;;;;;;16.52;70.56;97269.41;29395;218;63009;-65
2021/06/05 02:14:23;;;;;;;0.40;0.40;;;;;;;16.53;69.95;97268.28;29395;343;63004;-62
2021/06/05 02:15:14;;;;;;;0.47;0.47;;;;;;;16.49;70.48;97272.81;29394;197;64013;-61
2021/06/05 02:15:57;;;;;;;0.50;0.50;;;;;;;16.47;70.72;97266.84;29395;227;63004;-63
2021/06/05 02:16:42;;;;;;;0.40;0.40;;;;;;;16.43;70.70;97266.66;29394;227;64013;-63
2021/06/05 02:17:13;;;;;;;0.50;0.50;;;;;;;16.42;70.80;97265.06;29395;214;63004;-62
2021/06/05 02:17:45;;;;;;;0.50;0.50;;;;;;;16.39;71.13;97266.50;29395;220;63008;-61
2021/06/05 02:18:32;;;;;;;0.50;0.50;;;;;;;16.38;71.08;97258.59;29395;227;63005;-62
2021/06/05 02:19:13;;;;;;;0.50;0.50;;;;;;;16.38;71.41;97269.56;29395;316;63009;-68
2021/06/05 02:19:48;;;;;;;0.40;0.40;;;;;;;16.51;70.50;97268.62;29416;250;64009;-63
2021/06/05 02:20:27;;;;;;;0.40;0.40;;;;;;;16.53;70.05;97266.34;29395;220;63012;-61
2021/06/05 02:21:19;;;;;;;0.40;0.40;;;;;;;16.50;70.36;97267.00;29395;286;63005;-61
2021/06/05 02:21:53;;;;;;;0.40;0.40;;;;;;;16.49;70.40;97270.88;29395;286;63014;-63
2021/06/05 02:22:28;;;;;;;0.40;0.40;;;;;;;16.50;70.66;97272.47;29395;199;63004;-61
2021/06/05 02:23:02;;;;;;;0.47;0.47;;;;;;;16.49;70.27;97270.88;29395;207;63009;-62
2021/06/05 02:23:57;;;;;;;0.50;0.50;;;;;;;16.49;70.74;97270.06;29395;202;63004;-65
2021/06/05 02:24:34;;;;;;;0.50;0.50;;;;;;;16.51;69.94;97267.81;29395;261;63008;-61
2021/06/05 02:25:09;;;;;;;0.40;0.40;;;;;;;16.50;70.31;97266.19;29393;264;64009;-63
2021/06/05 02:25:41;;;;;;;0.50;0.50;;;;;;;16.49;70.44;97272.81;29395;280;63009;-67
2021/06/05 02:26:15;;;;;;;0.50;0.50;;;;;;;16.57;69.90;97261.84;29395;197;63005;-63
2021/06/05 02:26:48;;;;;;;0.50;0.50;;;;;;;16.68;69.32;97265.09;29395;205;63023;-64
2021/06/05 02:27:22;;;;;;;0.50;0.50;;;;;;;16.66;69.51;97254.44;29395;252;63005;-62
2021/06/05 02:27:57;;;;;;;0.50;0.50;;;;;;;16.65;69.54;97265.72;29395;224;63009;-66
2021/06/05 02:28:30;;;;;;;0.50;0.50;;;;;;;16.62;69.81;97264.44;29395;240;63005;-63
2021/06/05 02:29:03;;;;;;;0.50;0.50;;;;;;;16.63;69.41;97260.53;29395;231;63024;-64
2021/06/05 02:29:39;;;;;;;0.70;0.70;;;;;;;16.66;69.82;97262.66;29395;234;63004;-68
2021/06/05 02:30:16;;;;;;;0.50;0.50;;;;;;;16.65;69.63;97272.00;29394;286;64013;-63
2021/06/05 02:30:49;;;;;;;0.50;0.50;;;;;;;16.80;68.82;97264.44;29394;197;64009;-64
2021/06/05 02:31:22;;;;;;;0.50;0.50;;;;;;;16.82;68.72;97264.94;29395;349;63009;-64
2021/06/05 02:31:53;;;;;;;0.50;0.50;;;;;;;16.78;69.25;97262.03;29395;206;63004;-63
2021/06/05 02:32:30;;;;;;;0.50;0.50;;;;;;;16.70;70.87;97257.34;29395;343;63009;-62
2021/06/05 02:33:04;;;;;;;0.50;0.50;;;;;;;16.59;71.04;97262.34;29395;317;63005;-61
2021/06/05 02:33:38;;;;;;;0.43;0.43;;;;;;;16.54;70.97;97265.22;29395;195;63009;-63
2021/06/05 02:34:14;;;;;;;0.50;0.50;;;;;;;16.52;70.94;97263.94;29395;206;63005;-66
2021/06/05 02:34:46;;;;;;;0.40;0.40;;;;;;;16.63;69.62;97259.75;29395;224;63014;-62
2021/06/05 02:35:25;;;;;;;0.50;0.50;;;;;;;16.61;70.13;97257.34;29395;310;63005;-62
2021/06/05 02:36:00;;;;;;;0.50;0.50;;;;;;;16.58;70.08;97263.47;29394;315;64013;-62
2021/06/05 02:36:32;;;;;;;0.50;0.50;;;;;;;16.55;70.62;97263.31;29395;221;63000;-66
2021/06/05 02:37:08;;;;;;;0.40;0.40;;;;;;;16.55;70.22;97261.38;29395;261;63009;-66
2021/06/05 02:37:40;;;;;;;0.50;0.50;;;;;;;16.56;69.93;97254.75;29395;271;63004;-62
2021/06/05 02:38:15;;;;;;;0.50;0.50;;;;;;;16.55;70.08;97258.63;29395;271;63009;-66
2021/06/05 02:38:49;;;;;;;0.50;0.50;;;;;;;16.53;70.21;97247.19;29395;302;63004;-64
2021/06/05 02:39:22;;;;;;;0.40;0.40;;;;;;;16.56;70.00;97260.25;29395;324;63026;-68
2021/06/05 02:39:55;;;;;;;0.47;0.47;;;;;;;16.57;70.41;97259.13;29395;204;63011;-66
2021/06/05 02:40:31;;;;;;;0.40;0.40;;;;;;;16.59;70.24;97254.12;29394;225;64014;-61
2021/06/05 02:41:07;;;;;;;0.50;0.50;;;;;;;16.55;71.73;97255.88;29395;209;63005;-63
2021/06/05 02:41:42;;;;;;;0.40;0.40;;;;;;;16.48;71.56;97252.81;29394;216;64009;-62
2021/06/05 02:42:19;;;;;;;0.40;0.40;;;;;;;16.46;71.08;97263.28;29395;328;63005;-62
2021/06/05 02:42:50;;;;;;;0.50;0.50;;;;;;;16.51;70.42;97254.91;29395;218;63009;-62
2021/06/05 02:43:26;;;;;;;0.50;0.50;;;;;;;16.48;70.61;97255.56;29395;237;63005;-62
2021/06/05 02:43:57;;;;;;;0.50;0.50;;;;;;;16.44;70.90;97257.31;29395;198;63009;-62
2021/06/05 02:44:30;;;;;;;0.40;0.40;;;;;;;16.41;71.20;97255.22;29395;199;63009;-62
2021/06/05 02:45:06;;;;;;;0.50;0.50;;;;;;;16.37;71.53;97251.53;29394;203;64013;-64
2021/06/05 02:45:56;;;;;;;0.50;0.50;;;;;;;16.31;72.51;97258.28;29395;226;63004;-62
2021/06/05 02:46:33;;;;;;;0.45;0.45;;;;;;;16.26;73.23;97261.19;29395;197;63009;-62
2021/06/05 02:47:10;;;;;;;0.50;0.50;;;;;;;16.23;72.83;97256.34;29395;226;63004;-61
2021/06/05 02:47:58;;;;;;;0.50;0.50;;;;;;;16.22;72.26;97254.75;29395;202;63014;-61
2021/06/05 02:48:55;;;;;;;0.50;0.50;;;;;;;16.19;72.53;97252.66;29395;214;63005;-64
2021/06/05 02:49:32;;;;;;;0.40;0.40;;;;;;;16.23;72.15;97248.13;29395;226;63009;-62
2021/06/05 02:50:08;;;;;;;0.40;0.40;;;;;;;16.22;71.96;97249.25;29394;225;64009;-62
2021/06/05 02:50:44;;;;;;;0.40;0.40;;;;;;;16.23;72.44;97246.22;29395;222;63009;-62
2021/06/05 02:51:24;;;;;;;0.50;0.50;;;;;;;16.22;72.24;97249.25;29395;263;63005;-61
2021/06/05 02:52:01;;;;;;;0.47;0.47;;;;;;;16.21;72.31;97248.47;29395;215;63009;-62
2021/06/05 02:52:32;;;;;;;0.40;0.40;;;;;;;16.20;72.51;97251.53;29395;221;63004;-62
2021/06/05 02:53:05;;;;;;;0.50;0.50;;;;;;;16.19;72.53;97255.38;29395;212;63009;-62
2021/06/05 02:53:36;;;;;;;0.50;0.50;;;;;;;16.18;72.54;97242.81;29395;204;63004;-63